Wetterdaten: Woche 10.07.17 - 16.07.17 (KW28)
Datum Zeit Temp. A. Feuchte A. Luftdruck Regen Wind Richtung Taupunkt Windchill Windben
10.07.2017 00:00 19,4 C 82 % 1011,3 hPa 1,0 l/m 1,3 km/h N 16,3 C 19,4 C 8,9 km/h
10.07.2017 01:00 18,9 C 82 % 1011,1 hPa 0,3 l/m 3,2 km/h N 15,7 C 18,9 C 14,9 km/h
10.07.2017 02:00 18,5 C 82 % 1010,2 hPa 0,0 l/m 0,4 km/h N 15,4 C 18,5 C 6,0 km/h
10.07.2017 03:00 18,4 C 82 % 1010,7 hPa 0,0 l/m 0,0 km/h N 15,3 C 18,4 C 0,8 km/h
10.07.2017 04:00 18,1 C 82 % 1010,5 hPa 0,0 l/m 0,0 km/h N 15,0 C 18,1 C 0,0 km/h
10.07.2017 05:00 17,8 C 82 % 1010,2 hPa 0,0 l/m 0,0 km/h N 14,6 C 17,8 C 0,0 km/h
10.07.2017 06:00 18,3 C 82 % 1010,2 hPa 0,0 l/m 0,0 km/h N 15,2 C 18,3 C 0,8 km/h
10.07.2017 07:00 19,0 C 82 % 1010,0 hPa 0,0 l/m 0,0 km/h N 15,9 C 19,0 C 1,2 km/h
10.07.2017 08:00 19,6 C 82 % 1010,7 hPa 1,6 l/m 0,3 km/h N 16,4 C 19,6 C 4,0 km/h
10.07.2017 09:00 20,4 C 81 % 1010,6 hPa 0,3 l/m 0,0 km/h N 17,0 C 20,4 C 0,8 km/h
10.07.2017 10:00 22,0 C 81 % 1010,0 hPa 0,0 l/m 0,0 km/h N 18,6 C 22,0 C 0,8 km/h
10.07.2017 11:00 24,6 C 80 % 1009,5 hPa 0,0 l/m 0,6 km/h N 20,8 C 24,6 C 6,4 km/h
10.07.2017 12:00 28,5 C 66 % 1008,7 hPa 0,0 l/m 1,0 km/h N 21,5 C 28,5 C 8,8 km/h
10.07.2017 13:00 30,4 C 60 % 1008,1 hPa 0,0 l/m 1,2 km/h N 21,8 C 30,4 C 6,0 km/h
10.07.2017 14:00 31,5 C 62 % 1007,3 hPa 0,0 l/m 1,5 km/h N 23,3 C 31,5 C 9,6 km/h
10.07.2017 15:00 30,2 C 63 % 1006,2 hPa 0,0 l/m 2,4 km/h N 22,2 C 30,2 C 14,9 km/h
10.07.2017 16:00 24,3 C 72 % 1007,3 hPa 0,8 l/m 6,2 km/h N 18,9 C 24,0 C 22,1 km/h
10.07.2017 17:00 24,7 C 71 % 1007,3 hPa 0,0 l/m 1,5 km/h N 19,0 C 24,7 C 7,6 km/h
10.07.2017 18:00 25,3 C 74 % 1006,8 hPa 1,0 l/m 0,2 km/h N 20,2 C 25,3 C 4,0 km/h
10.07.2017 19:00 25,0 C 75 % 1006,7 hPa 0,5 l/m 1,7 km/h N 20,2 C 25,0 C 7,7 km/h
10.07.2017 20:00 24,0 C 78 % 1007,0 hPa 0,0 l/m 0,6 km/h N 19,8 C 24,0 C 4,0 km/h
10.07.2017 21:00 23,1 C 80 % 1007,2 hPa 0,0 l/m 0,0 km/h N 19,4 C 23,1 C 0,4 km/h
10.07.2017 22:00 22,3 C 80 % 1007,2 hPa 0,0 l/m 0,0 km/h N 18,6 C 22,3 C 0,0 km/h
10.07.2017 23:00 21,6 C 80 % 1007,1 hPa 0,0 l/m 0,0 km/h N 18,0 C 21,6 C 0,0 km/h
11.07.2017 00:00 20,9 C 81 % 1007,1 hPa 0,0 l/m 0,2 km/h N 17,5 C 20,9 C 3,6 km/h
11.07.2017 01:00 21,0 C 80 % 1007,7 hPa 0,3 l/m 5,0 km/h N 17,4 C 20,4 C 18,1 km/h
11.07.2017 02:00 22,3 C 73 % 1008,0 hPa 0,0 l/m 8,0 km/h N 17,1 C 21,7 C 24,1 km/h
11.07.2017 03:00 22,1 C 73 % 1008,6 hPa 0,0 l/m 8,6 km/h N 17,1 C 21,4 C 21,7 km/h
11.07.2017 04:00 21,9 C 74 % 1009,1 hPa 0,0 l/m 6,9 km/h N 17,0 C 21,6 C 23,3 km/h
11.07.2017 05:00 21,8 C 72 % 1009,7 hPa 0,0 l/m 8,9 km/h N 16,4 C 21,0 C 28,6 km/h
11.07.2017 06:00 20,6 C 76 % 1010,2 hPa 0,0 l/m 11,7 km/h N 16,2 C 18,9 C 35,0 km/h
11.07.2017 07:00 20,7 C 74 % 1010,5 hPa 0,0 l/m 11,9 km/h N 15,7 C 18,9 C 37,8 km/h
11.07.2017 08:00 21,0 C 69 % 1010,5 hPa 0,0 l/m 10,1 km/h N 15,1 C 19,7 C 33,0 km/h
11.07.2017 09:00 21,7 C 64 % 1011,0 hPa 0,0 l/m 11,1 km/h N 14,5 C 20,2 C 33,0 km/h
11.07.2017 10:00 22,4 C 63 % 1011,7 hPa 0,0 l/m 10,0 km/h N 14,9 C 21,3 C 31,0 km/h
11.07.2017 11:00 23,2 C 58 % 1012,2 hPa 0,0 l/m 6,6 km/h N 14,3 C 22,9 C 26,1 km/h
11.07.2017 12:00 23,8 C 59 % 1012,5 hPa 0,0 l/m 3,9 km/h N 15,3 C 23,8 C 18,9 km/h
11.07.2017 13:00 26,5 C 49 % 1012,2 hPa 0,0 l/m 10,1 km/h N 14,9 C 25,8 C 32,6 km/h
11.07.2017 14:00 27,6 C 47 % 1012,0 hPa 0,0 l/m 6,4 km/h N 15,4 C 27,5 C 25,3 km/h
11.07.2017 15:00 27,3 C 48 % 1011,9 hPa 0,0 l/m 8,8 km/h N 15,1 C 26,8 C 26,6 km/h
11.07.2017 16:00 26,9 C 48 % 1011,5 hPa 0,0 l/m 7,6 km/h N 14,9 C 26,6 C 22,9 km/h
11.07.2017 17:00 27,3 C 46 % 1010,9 hPa 0,0 l/m 9,8 km/h N 14,5 C 26,8 C 27,0 km/h
11.07.2017 18:00 27,4 C 44 % 1010,8 hPa 0,0 l/m 7,0 km/h N 13,9 C 27,2 C 21,7 km/h
11.07.2017 19:00 26,7 C 46 % 1011,2 hPa 0,0 l/m 3,7 km/h N 13,9 C 26,7 C 11,7 km/h
11.07.2017 20:00 25,9 C 48 % 1011,5 hPa 0,0 l/m 0,2 km/h N 14,0 C 25,9 C 3,6 km/h
11.07.2017 21:00 24,6 C 55 % 1012,1 hPa 0,0 l/m 0,0 km/h N 15,0 C 24,6 C 0,8 km/h
11.07.2017 22:00 23,1 C 63 % 1012,1 hPa 0,0 l/m 0,0 km/h N 15,5 C 23,1 C 0,4 km/h
11.07.2017 23:00 21,8 C 69 % 1012,5 hPa 0,0 l/m 0,0 km/h N 15,8 C 21,8 C 0,8 km/h
12.07.2017 00:00 21,1 C 72 % 1012,5 hPa 0,0 l/m 0,0 km/h N 15,8 C 21,1 C 0,8 km/h
12.07.2017 01:00 20,6 C 76 % 1012,5 hPa 0,0 l/m 0,0 km/h N 16,2 C 20,6 C 0,0 km/h
12.07.2017 02:00 19,9 C 78 % 1012,7 hPa 0,0 l/m 0,0 km/h N 15,8 C 19,9 C 0,0 km/h
12.07.2017 03:00 20,2 C 73 % 1012,7 hPa 0,0 l/m 1,0 km/h N 15,1 C 20,2 C 7,2 km/h
12.07.2017 04:00 21,1 C 69 % 1012,6 hPa 0,0 l/m 1,8 km/h N 15,2 C 21,1 C 11,3 km/h
12.07.2017 05:00 20,8 C 70 % 1012,8 hPa 0,0 l/m 0,2 km/h N 15,1 C 20,8 C 2,8 km/h
12.07.2017 06:00 20,1 C 73 % 1013,1 hPa 0,0 l/m 0,8 km/h N 15,0 C 20,1 C 4,8 km/h
12.07.2017 07:00 21,8 C 70 % 1013,1 hPa 0,0 l/m 0,2 km/h N 16,0 C 21,8 C 3,2 km/h
12.07.2017 08:00 23,2 C 65 % 1013,0 hPa 0,0 l/m 0,7 km/h N 16,3 C 23,2 C 5,2 km/h
12.07.2017 09:00 25,0 C 57 % 1012,5 hPa 0,0 l/m 2,3 km/h N 15,8 C 25,0 C 11,3 km/h
12.07.2017 10:00 26,5 C 53 % 1011,8 hPa 0,0 l/m 0,6 km/h N 16,0 C 26,5 C 6,4 km/h
12.07.2017 11:00 28,5 C 50 % 1011,2 hPa 0,0 l/m 1,7 km/h N 16,8 C 28,5 C 12,1 km/h
12.07.2017 12:00 29,0 C 49 % 1010,8 hPa 0,0 l/m 1,0 km/h N 17,0 C 29,0 C 6,4 km/h
12.07.2017 13:00 30,4 C 47 % 1010,1 hPa 0,0 l/m 1,3 km/h N 17,9 C 30,4 C 8,6 km/h
12.07.2017 14:00 30,3 C 46 % 1009,7 hPa 0,0 l/m 1,6 km/h N 17,3 C 30,3 C 8,0 km/h
12.07.2017 15:00 29,0 C 47 % 1009,4 hPa 0,0 l/m 0,0 km/h N 16,5 C 29,0 C 6,4 km/h
12.07.2017 16:00 28,1 C 50 % 1009,0 hPa 0,0 l/m 0,0 km/h N 16,5 C 28,1 C 4,0 km/h
12.07.2017 17:00 28,8 C 47 % 1008,5 hPa 0,0 l/m 0,0 km/h N 16,1 C 28,8 C 7,2 km/h
12.07.2017 18:00 29,0 C 53 % 1007,8 hPa 0,0 l/m 0,0 km/h N 18,4 C 29,0 C 4,8 km/h
12.07.2017 19:00 26,9 C 59 % 1008,2 hPa 0,0 l/m 1,2 km/h N 18,1 C 26,9 C 8,0 km/h
12.07.2017 20:00 22,7 C 72 % 1009,1 hPa 6,0 l/m 4,6 km/h N 17,2 C 22,3 C 19,7 km/h
12.07.2017 21:00 19,9 C 80 % 1010,2 hPa 2,3 l/m 0,2 km/h N 16,4 C 19,9 C 3,6 km/h
12.07.2017 22:00 19,1 C 81 % 1010,5 hPa 0,0 l/m 0,0 km/h N 15,7 C 19,1 C 1,6 km/h
12.07.2017 23:00 18,5 C 81 % 1010,6 hPa 0,0 l/m 0,6 km/h N 15,2 C 18,5 C 4,4 km/h
13.07.2017 00:00 18,6 C 81 % 1010,9 hPa 0,0 l/m 0,3 km/h N 15,3 C 18,6 C 2,8 km/h
13.07.2017 01:00 18,5 C 81 % 1011,1 hPa 0,0 l/m 2,2 km/h N 15,1 C 18,5 C 15,7 km/h
13.07.2017 02:00 19,7 C 77 % 1011,7 hPa 0,3 l/m 6,0 km/h N 15,4 C 19,2 C 26,5 km/h
13.07.2017 03:00 18,1 C 69 % 1013,4 hPa 0,0 l/m 8,5 km/h N 12,3 C 17,1 C 26,1 km/h
13.07.2017 04:00 17,5 C 67 % 1014,3 hPa 0,0 l/m 7,2 km/h N 11,4 C 17,1 C 21,3 km/h
13.07.2017 05:00 17,5 C 69 % 1014,9 hPa 0,0 l/m 5,9 km/h N 11,7 C 17,4 C 19,7 km/h
13.07.2017 06:00 17,5 C 72 % 1015,6 hPa 0,0 l/m 10,2 km/h N 12,3 C 15,8 C 30,2 km/h
13.07.2017 07:00 18,0 C 70 % 1016,3 hPa 0,0 l/m 9,8 km/h N 12,5 C 16,5 C 29,0 km/h
13.07.2017 08:00 18,0 C 71 % 1016,9 hPa 0,0 l/m 8,0 km/h N 12,6 C 17,2 C 22,1 km/h
13.07.2017 09:00 18,1 C 71 % 1017,4 hPa 0,0 l/m 6,5 km/h N 12,7 C 17,8 C 22,1 km/h
13.07.2017 10:00 18,8 C 66 % 1017,6 hPa 0,0 l/m 7,9 km/h N 12,2 C 18,2 C 21,7 km/h
13.07.2017 11:00 20,4 C 60 % 1017,4 hPa 0,0 l/m 9,8 km/h N 12,2 C 19,1 C 28,2 km/h
13.07.2017 12:00 21,4 C 55 % 1017,4 hPa 0,0 l/m 9,0 km/h N 12,0 C 20,5 C 26,6 km/h
13.07.2017 13:00 22,3 C 51 % 1017,3 hPa 0,0 l/m 7,1 km/h N 11,5 C 22,0 C 21,7 km/h
13.07.2017 14:00 22,8 C 47 % 1017,1 hPa 0,0 l/m 8,2 km/h N 10,8 C 22,3 C 25,4 km/h
13.07.2017 15:00 23,1 C 45 % 1016,9 hPa 0,0 l/m 8,6 km/h N 10,3 C 22,4 C 25,8 km/h
13.07.2017 16:00 23,2 C 41 % 1016,7 hPa 0,0 l/m 7,2 km/h N 9,0 C 22,9 C 21,7 km/h
13.07.2017 17:00 23,4 C 39 % 1016,4 hPa 0,0 l/m 7,7 km/h N 8,5 C 23,0 C 21,3 km/h
13.07.2017 18:00 23,7 C 36 % 1016,4 hPa 0,0 l/m 6,6 km/h N 7,8 C 23,6 C 23,3 km/h
13.07.2017 19:00 23,1 C 36 % 1016,4 hPa 0,0 l/m 4,2 km/h N 7,1 C 23,1 C 17,7 km/h
13.07.2017 20:00 21,8 C 38 % 1016,8 hPa 0,0 l/m 1,4 km/h N 6,8 C 21,8 C 8,9 km/h
13.07.2017 21:00 19,6 C 46 % 1017,3 hPa 0,0 l/m 0,8 km/h N 7,4 C 19,6 C 4,8 km/h
13.07.2017 22:00 17,6 C 52 % 1017,9 hPa 0,0 l/m 0,2 km/h N 7,7 C 17,6 C 4,8 km/h
13.07.2017 23:00 16,3 C 58 % 1018,4 hPa 0,0 l/m 0,0 km/h N 7,9 C 16,3 C 1,2 km/h
14.07.2017 00:00 14,6 C 65 % 1018,8 hPa 0,0 l/m 0,0 km/h N 8,0 C 14,6 C 0,0 km/h
14.07.2017 01:00 13,0 C 70 % 1018,6 hPa 0,0 l/m 0,0 km/h N 7,7 C 13,0 C 0,0 km/h
14.07.2017 02:00 12,1 C 74 % 1018,1 hPa 0,0 l/m 0,0 km/h N 7,7 C 12,1 C 0,8 km/h
14.07.2017 03:00 11,3 C 76 % 1017,8 hPa 0,0 l/m 0,0 km/h N 7,3 C 11,3 C 0,0 km/h
14.07.2017 04:00 10,9 C 78 % 1017,5 hPa 0,0 l/m 0,1 km/h N 7,2 C 10,9 C 2,0 km/h
14.07.2017 05:00 10,8 C 78 % 1017,5 hPa 0,0 l/m 0,0 km/h N 7,1 C 10,8 C 0,8 km/h
14.07.2017 06:00 11,0 C 80 % 1017,3 hPa 0,0 l/m 0,0 km/h N 7,6 C 11,0 C 1,6 km/h
14.07.2017 07:00 12,6 C 78 % 1017,1 hPa 0,0 l/m 0,0 km/h N 8,8 C 12,6 C 0,4 km/h
14.07.2017 08:00 15,7 C 71 % 1016,7 hPa 0,0 l/m 0,2 km/h N 10,4 C 15,7 C 3,2 km/h
14.07.2017 09:00 19,3 C 57 % 1016,2 hPa 0,0 l/m 0,7 km/h N 10,5 C 19,3 C 6,0 km/h
14.07.2017 10:00 21,3 C 52 % 1015,9 hPa 0,0 l/m 0,8 km/h N 11,0 C 21,3 C 6,4 km/h
14.07.2017 11:00 21,5 C 50 % 1015,6 hPa 0,0 l/m 0,7 km/h N 10,6 C 21,5 C 7,3 km/h
14.07.2017 12:00 21,9 C 53 % 1015,3 hPa 0,0 l/m 0,8 km/h N 11,8 C 21,9 C 6,8 km/h
14.07.2017 13:00 23,4 C 49 % 1014,8 hPa 0,0 l/m 1,1 km/h N 12,0 C 23,4 C 8,4 km/h
14.07.2017 14:00 23,2 C 50 % 1014,3 hPa 0,0 l/m 0,4 km/h N 12,3 C 23,2 C 4,4 km/h
14.07.2017 15:00 22,4 C 52 % 1014,2 hPa 0,0 l/m 0,1 km/h N 12,0 C 22,4 C 3,2 km/h
14.07.2017 16:00 22,1 C 51 % 1013,7 hPa 0,0 l/m 1,1 km/h N 11,6 C 22,1 C 8,1 km/h
14.07.2017 17:00 22,3 C 51 % 1013,2 hPa 0,0 l/m 1,0 km/h N 11,7 C 22,3 C 8,4 km/h
14.07.2017 18:00 22,2 C 50 % 1013,2 hPa 0,0 l/m 2,5 km/h N 11,2 C 22,2 C 11,7 km/h
14.07.2017 19:00 21,6 C 52 % 1013,3 hPa 0,0 l/m 1,9 km/h N 11,2 C 21,6 C 10,9 km/h
14.07.2017 20:00 20,5 C 54 % 1013,0 hPa 0,0 l/m 0,7 km/h N 10,9 C 20,5 C 6,0 km/h
14.07.2017 21:00 18,8 C 63 % 1013,5 hPa 0,0 l/m 0,0 km/h N 11,5 C 18,8 C 0,4 km/h
14.07.2017 22:00 17,4 C 69 % 1013,6 hPa 0,0 l/m 0,2 km/h N 11,6 C 17,4 C 3,2 km/h
14.07.2017 23:00 17,3 C 68 % 1013,9 hPa 0,0 l/m 0,8 km/h N 11,2 C 17,3 C 10,9 km/h
15.07.2017 00:00 18,0 C 64 % 1014,0 hPa 0,0 l/m 6,7 km/h N 11,0 C 17,6 C 23,3 km/h
15.07.2017 01:00 15,9 C 73 % 1014,8 hPa 1,6 l/m 7,5 km/h N 11,0 C 15,0 C 25,8 km/h
15.07.2017 02:00 15,2 C 81 % 1014,6 hPa 0,0 l/m 3,6 km/h N 11,9 C 15,2 C 16,5 km/h
15.07.2017 03:00 15,5 C 79 % 1014,1 hPa 0,0 l/m 3,1 km/h N 11,9 C 15,5 C 14,9 km/h
15.07.2017 04:00 15,9 C 77 % 1013,8 hPa 0,0 l/m 6,2 km/h N 11,9 C 15,8 C 20,1 km/h
15.07.2017 05:00 15,8 C 77 % 1014,1 hPa 0,3 l/m 8,2 km/h N 11,8 C 14,8 C 22,9 km/h
15.07.2017 06:00 16,0 C 78 % 1014,6 hPa 0,0 l/m 9,7 km/h N 12,1 C 14,4 C 24,5 km/h
15.07.2017 07:00 16,3 C 77 % 1015,2 hPa 0,0 l/m 7,8 km/h N 12,3 C 15,6 C 20,5 km/h
15.07.2017 08:00 16,5 C 75 % 1015,7 hPa 0,0 l/m 9,0 km/h N 12,0 C 15,1 C 27,4 km/h
15.07.2017 09:00 16,0 C 78 % 1016,5 hPa 0,3 l/m 6,6 km/h N 12,2 C 15,8 C 22,0 km/h
15.07.2017 10:00 15,9 C 78 % 1017,0 hPa 0,0 l/m 8,8 km/h N 12,1 C 14,7 C 24,5 km/h
15.07.2017 11:00 16,7 C 75 % 1017,4 hPa 0,0 l/m 7,1 km/h N 12,3 C 16,3 C 18,9 km/h
15.07.2017 12:00 15,5 C 76 % 1018,0 hPa 1,0 l/m 4,9 km/h N 11,3 C 15,5 C 17,3 km/h
15.07.2017 13:00 16,5 C 79 % 1017,9 hPa 0,0 l/m 6,0 km/h N 12,7 C 16,2 C 20,9 km/h
15.07.2017 14:00 17,8 C 69 % 1017,8 hPa 0,3 l/m 9,4 km/h N 11,9 C 16,4 C 27,4 km/h
15.07.2017 15:00 19,1 C 64 % 1017,7 hPa 0,0 l/m 9,5 km/h N 12,1 C 17,8 C 27,4 km/h
15.07.2017 16:00 19,0 C 63 % 1017,7 hPa 0,0 l/m 10,6 km/h N 11,9 C 17,4 C 27,8 km/h
15.07.2017 17:00 18,6 C 66 % 1018,2 hPa 0,0 l/m 8,4 km/h N 12,1 C 17,5 C 24,1 km/h
15.07.2017 18:00 15,3 C 80 % 1019,4 hPa 2,6 l/m 2,5 km/h N 11,8 C 15,3 C 11,2 km/h
15.07.2017 19:00 14,8 C 81 % 1019,7 hPa 2,3 l/m 1,7 km/h N 11,5 C 14,8 C 7,2 km/h
15.07.2017 20:00 14,6 C 81 % 1020,1 hPa 2,1 l/m 2,7 km/h N 11,4 C 14,6 C 11,7 km/h
15.07.2017 21:00 14,4 C 80 % 1020,5 hPa 2,1 l/m 6,4 km/h N 11,1 C 14,1 C 19,3 km/h
15.07.2017 22:00 14,5 C 80 % 1020,9 hPa 1,6 l/m 4,4 km/h N 11,1 C 14,5 C 13,7 km/h
15.07.2017 23:00 14,7 C 79 % 1021,0 hPa 0,3 l/m 7,9 km/h N 11,1 C 13,7 C 20,9 km/h
16.07.2017 00:00 14,7 C 79 % 1021,5 hPa 0,0 l/m 6,6 km/h N 11,0 C 14,2 C 20,5 km/h
16.07.2017 01:00 14,4 C 79 % 1021,7 hPa 0,0 l/m 4,5 km/h N 10,8 C 14,4 C 16,9 km/h
16.07.2017 02:00 14,3 C 79 % 1021,6 hPa 0,0 l/m 5,9 km/h N 10,6 C 14,2 C 16,5 km/h
16.07.2017 03:00 14,2 C 79 % 1021,8 hPa 0,0 l/m 4,3 km/h N 10,5 C 14,2 C 12,1 km/h
16.07.2017 04:00 14,3 C 78 % 1021,7 hPa 0,0 l/m 5,9 km/h N 10,5 C 14,2 C 14,5 km/h
16.07.2017 05:00 14,2 C 78 % 1022,0 hPa 0,0 l/m 5,5 km/h N 10,5 C 14,1 C 16,5 km/h
16.07.2017 06:00 14,4 C 78 % 1022,5 hPa 0,0 l/m 5,5 km/h N 10,7 C 14,4 C 17,7 km/h
16.07.2017 07:00 15,2 C 76 % 1023,0 hPa 0,0 l/m 6,9 km/h N 11,0 C 14,7 C 20,1 km/h
16.07.2017 08:00 16,4 C 74 % 1023,3 hPa 0,0 l/m 5,7 km/h N 11,7 C 16,4 C 18,1 km/h
16.07.2017 09:00 17,8 C 71 % 1023,3 hPa 0,0 l/m 5,6 km/h N 12,4 C 17,8 C 19,7 km/h
16.07.2017 10:00 19,1 C 65 % 1023,2 hPa 0,0 l/m 5,8 km/h N 12,4 C 19,0 C 18,9 km/h
16.07.2017 11:00 20,1 C 59 % 1023,0 hPa 0,0 l/m 7,1 km/h N 11,8 C 19,7 C 21,3 km/h
16.07.2017 12:00 21,3 C 55 % 1022,8 hPa 0,0 l/m 4,7 km/h N 11,9 C 21,3 C 19,3 km/h
16.07.2017 13:00 22,0 C 54 % 1022,3 hPa 0,0 l/m 5,7 km/h N 12,4 C 21,9 C 19,7 km/h
16.07.2017 14:00 22,5 C 52 % 1021,8 hPa 0,0 l/m 5,7 km/h N 12,0 C 22,5 C 21,7 km/h
16.07.2017 15:00 22,9 C 51 % 1021,5 hPa 0,0 l/m 5,7 km/h N 12,1 C 22,8 C 20,1 km/h
16.07.2017 16:00 22,7 C 48 % 1021,4 hPa 0,0 l/m 6,2 km/h N 11,2 C 22,6 C 19,3 km/h
16.07.2017 17:00 22,8 C 48 % 1021,1 hPa 0,0 l/m 4,2 km/h N 11,0 C 22,8 C 15,3 km/h
16.07.2017 18:00 23,1 C 49 % 1020,9 hPa 0,0 l/m 3,9 km/h N 11,7 C 23,1 C 14,9 km/h
16.07.2017 19:00 22,3 C 52 % 1020,8 hPa 0,0 l/m 2,1 km/h N 11,8 C 22,3 C 9,7 km/h
16.07.2017 20:00 21,5 C 54 % 1020,9 hPa 0,0 l/m 0,6 km/h N 11,8 C 21,5 C 6,8 km/h
16.07.2017 21:00 19,9 C 58 % 1021,2 hPa 0,0 l/m 0,1 km/h N 11,4 C 19,9 C 2,4 km/h
16.07.2017 22:00 18,8 C 59 % 1021,2 hPa 0,0 l/m 0,2 km/h N 10,6 C 18,8 C 5,2 km/h
16.07.2017 23:00 17,9 C 62 % 1021,3 hPa 0,0 l/m 0,0 km/h N 10,5 C 17,9 C 0,4 km/h
Min-Datum _ 14.07.17 13.07.17 10.07.17 - 10.07.17 - 13.07.17 14.07.17 10.07.17
_ Min-Zeit 05:45 18:00 15:45 - 02:00 - 19:45 05:45 03:30
Minimum _ 10,7 C 35 % 1005,4 hPa - 0,0 km/h - 6,5 C 10,7 C 0,0 km/h
Max-Datum _ 10.07.17 10.07.17 16.07.17 12.07.17 12.07.17 - 10.07.17 10.07.17 11.07.17
_ Max-Zeit 14:45 00:00 09:30 20:15 20:00 - 14:30 14:45 07:30
Maximum _ 31,8 C 82 % 1023,4 hPa 6,0 l/m 14,9 km/h
N
- 23,8 C 31,8 C 45,1 km/h
N
Durchschnitt _ 20,5 C 66 % 1014,4 hPa #28,6 l/m 3,7 km/h N 13,5 C 20,2 C 13,2 km/h